createdAt,value
2022-10-18T00:00:29.323Z,69.7
2022-10-18T00:20:29.265Z,69.8
2022-10-18T00:40:29.226Z,69.8
2022-10-18T01:00:29.234Z,69.8
2022-10-18T01:20:29.180Z,69.8
2022-10-18T01:40:29.153Z,69.7
2022-10-18T02:00:29.161Z,69.6
2022-10-18T02:20:29.123Z,69.6
2022-10-18T02:40:29.090Z,69.8
2022-10-18T03:00:29.102Z,69.9
2022-10-18T03:20:29.048Z,69.9
2022-10-18T03:40:29.020Z,70.0
2022-10-18T04:00:29.016Z,70.0
2022-10-18T04:20:28.964Z,69.9
2022-10-18T04:40:28.942Z,69.8
2022-10-18T05:00:28.936Z,69.8
2022-10-18T05:20:28.902Z,69.8
2022-10-18T05:40:28.907Z,69.7
2022-10-18T06:00:28.879Z,70.8
2022-10-18T06:20:28.856Z,71.0
2022-10-18T06:40:28.776Z,70.3
2022-10-18T07:00:28.753Z,70.1
2022-10-18T07:20:28.740Z,70.0
2022-10-18T07:40:28.723Z,69.8
2022-10-18T08:00:28.704Z,69.6
2022-10-18T08:20:28.690Z,69.7
2022-10-18T08:40:28.817Z,69.8
2022-10-18T09:00:28.784Z,70.1
2022-10-18T09:20:28.627Z,70.2
2022-10-18T09:40:28.581Z,70.3
2022-10-18T10:00:28.562Z,69.9
2022-10-18T10:20:28.552Z,71.3
2022-10-18T10:40:28.518Z,70.9
2022-10-18T11:00:28.498Z,70.7
2022-10-18T11:20:28.449Z,70.6
2022-10-18T11:40:28.420Z,70.3
2022-10-18T12:00:28.423Z,70.1
2022-10-18T12:20:28.370Z,70.7
2022-10-18T12:40:28.325Z,70.5
2022-10-18T13:00:28.326Z,70.4
2022-10-18T13:20:28.315Z,70.3
2022-10-18T13:40:28.261Z,69.7
2022-10-18T14:00:28.220Z,70.4
2022-10-18T14:20:28.266Z,70.3
2022-10-18T14:40:28.183Z,70.2
2022-10-18T15:00:28.152Z,70.5
2022-10-18T15:20:28.128Z,70.5
2022-10-18T15:40:28.107Z,70.3
2022-10-18T16:00:28.114Z,70.2
2022-10-18T16:20:28.063Z,70.9
2022-10-18T16:40:28.064Z,71.5
2022-10-18T17:00:28.004Z,71.4
2022-10-18T17:20:27.992Z,71.6
2022-10-18T17:40:27.992Z,72.3
2022-10-18T18:00:27.935Z,72.7
2022-10-18T18:20:27.942Z,72.9
2022-10-18T18:40:27.885Z,72.5
2022-10-18T19:00:27.877Z,72.5
2022-10-18T19:20:27.845Z,72.4
2022-10-18T19:40:27.823Z,72.8
2022-10-18T20:00:27.803Z,73.8
2022-10-18T20:20:27.735Z,74.1
2022-10-18T20:40:27.745Z,73.2
2022-10-18T21:00:27.732Z,72.8
2022-10-18T21:20:27.672Z,72.5
2022-10-18T21:40:27.666Z,72.4
2022-10-18T22:00:27.610Z,72.3
2022-10-18T22:20:27.613Z,72.1
2022-10-18T22:40:27.584Z,71.9
2022-10-18T23:00:27.529Z,71.8
2022-10-18T23:20:27.521Z,71.7
2022-10-18T23:40:27.522Z,71.6
